Ridgetop, TN (37152)

7:42 PM CST on February 13, 2016 (GMT -0600)
White Hill | | Change Station
CLOSE
Current Station
Personal Weather Station
Location: Goodlettsville, TN
Elevation: 876 ft
Nearby Weather Stations
Active Advisory: Winter Weather Advisory

Elev 876 ft 36.40 °N, 86.69 °W | Updated 11 seconds ago

Overcast
Overcast
24.8 °F
Feels Like 25 °F
N
0.0
Wind Variable Wind from SSW
Gusts 0.0 mph

Today
High -- | Low -- °F
--% Chance of Precip.
Yesterday
High -- | Low -- °F
Precip. -- in
Pressure 30.52 in
Visibility 10.0 miles
Clouds Overcast 11000 ft
Windchill 25 °F
Dew Point -2 °F
Humidity 31%
Rainfall 0.00 in
Snow Depth Not available.
6:37 AM 5:25 PM
Waxing Crescent, 36% visible
METAR KBNA 140053Z 01006KT 10SM OVC110 M03/M17 A3050 RMK AO2 SLP335 T10281167
Pressure 30.52 in
Visibility 10.0 miles
Clouds Overcast 11000 ft
Windchill 25 °F
Dew Point -2 °F
Humidity 31%
Rainfall 0.00 in
Snow Depth Not available.
6:37 AM 5:25 PM
Waxing Crescent, 36% visible
METAR KBNA 140053Z 01006KT 10SM OVC110 M03/M17 A3050 RMK AO2 SLP335 T10281167

10-Day Weather Forecast

Almanac

Astronomy

Feb. 13, 2016 Rise Set
Actual Time
Civil Twilight
Nautical Twilight
Astronomical Twilight
Moon
Length of Visible Light
Length of Day
Tomorrow will be .
, % of the Moon is Illuminated

Today's Extremes

State Highs State Lows

Community

WunderPhotos

Upload Photos

1,892,722 photos uploaded!

WunderBlog® & News

Nearby

Air Quality

  Air Quality AQ Index Pollutant
Not available.

Snow Depth

Station Depth Elevation

Earthquake Activity

City Distance Mag. Time & Date
Minimum magnitude displayed is 2.5.

Coastal Water Temperatures

Place Temperature

Stations

Nearby Weather Stations

Station Location Temp. Windchill Dew Point Humidity Wind Precip. Elev Updated Type
                   

Watches & Warnings

Winter Weather Advisory
Issued: 11:33 AM CST Feb. 13, 2016 – National Weather Service

... Winter Weather Advisory in effect from noon Sunday to 6 am CST
Monday...

The National Weather Service in Nashville has issued a Winter
Weather Advisory for a mixture of snow... sleet... and freezing rain
... Which is in effect from noon Sunday to 6 am CST Monday.

* Timing... noon Sunday until 6 am CST Monday.

* Main impact... hazardous travel conditions across the advisory
area due to a wintry mix of snow... sleet and freezing rain.

*Accumulations... 1 to 2 inches of snow with up to 3 inches in the
upper Cumberland.


Precautionary/preparedness actions...

A Winter Weather Advisory means that periods of snow... sleet... or
freezing rain will cause travel difficulties. Be prepared for
slippery roads and limited visibilities... and use caution while
driving.



Boyd
01